WetterOnline ( https://www.wetteronline.de )

Wetter aktuell Theilenhofen

Aktuelles Wetter: Weißenburg (424m)

6-stündlich | Neueste Meldungen
Ortszeit Temperatur Wetter
Mi, 26.06. 8:00 23.5° C wolkenlos
Mi, 26.06. 2:00 19.1° C wolkig
Di, 25.06. 20:00 29.1° C wolkenlos
Di, 25.06. 14:00 29.3° C leicht bewölkt
Di, 25.06. 8:00 21.8° C leicht bewölkt
Di, 25.06. 2:00 20.8° C fast wolkenlos
Mo, 24.06. 20:00 25.9° C leicht bewölkt
Mo, 24.06. 14:00 27.1° C wolkenlos
Ortszeit Temperatur Wetter
Mi, 26.06. 11:30 31.1° C leicht bewölkt
Mi, 26.06. 11:20 31.1° C leicht bewölkt
Mi, 26.06. 11:10 30.7° C wolkenlos
Mi, 26.06. 11:00 31.2° C fast wolkenlos
Mi, 26.06. 10:50 31.2° C fast wolkenlos
Mi, 26.06. 10:40 30.1° C leicht bewölkt
Mi, 26.06. 10:30 29.0° C wolkenlos
Mi, 26.06. 10:00 28.2° C wolkenlos
Mi, 26.06. 9:30 27.0° C wolkenlos
Mi, 26.06. 9:00 25.7° C wolkenlos
Mi, 26.06. 8:30 24.8° C wolkenlos
Ortszeit Relative Feuchte Sichtweite
Mi, 26.06. 8:00 72% 10 km
Mi, 26.06. 2:00 89% 18 km
Di, 25.06. 20:00 53% 35 km
Di, 25.06. 14:00 44% 24 km
Di, 25.06. 8:00 65% 10 km
Di, 25.06. 2:00 73% 30 km
Mo, 24.06. 20:00 46% 40 km
Mo, 24.06. 14:00 50% 29 km
Ortszeit Relative Feuchte Sichtweite
Mi, 26.06. 11:30 50% 23 km
Mi, 26.06. 11:20 50% -
Mi, 26.06. 11:10 50% -
Mi, 26.06. 11:00 49% 25 km
Mi, 26.06. 10:50 49% -
Mi, 26.06. 10:40 54% -
Mi, 26.06. 10:30 58% 5.0 km
Mi, 26.06. 10:00 61% 4.9 km
Mi, 26.06. 9:30 64% 4.0 km
Mi, 26.06. 9:00 69% 5.0 km
Mi, 26.06. 8:30 70% 8 km
Ortszeit Niederschlagsmenge Niederschlagsart
Mi, 26.06. 8:00 0.0 l/m2 in 12 Std. -
Mi, 26.06. 2:00 0.0 l/m2 in 6 Std. -
Di, 25.06. 20:00 0.0 l/m2 in 12 Std. -
Di, 25.06. 14:00 0.0 l/m2 in 6 Std. -
Di, 25.06. 8:00 0.0 l/m2 in 12 Std. -
Di, 25.06. 2:00 0.0 l/m2 in 6 Std. -
Mo, 24.06. 20:00 0.0 l/m2 in 12 Std. -
Mo, 24.06. 14:00 0.0 l/m2 in 6 Std. -
Ortszeit Niederschlagsmenge Niederschlagsart
Mi, 26.06. 11:30 0.0 l/m2 in 1 Std. -
Mi, 26.06. 11:20 keine Meldung -
Mi, 26.06. 11:10 keine Meldung -
Mi, 26.06. 11:00 0.0 l/m2 in 1 Std. -
Mi, 26.06. 10:50 keine Meldung -
Mi, 26.06. 10:40 keine Meldung -
Mi, 26.06. 10:30 0.0 l/m2 in 1 Std. -
Mi, 26.06. 10:00 0.0 l/m2 in 1 Std. -
Mi, 26.06. 9:30 0.0 l/m2 in 1 Std. -
Mi, 26.06. 9:00 0.0 l/m2 in 1 Std. -
Mi, 26.06. 8:30 0.0 l/m2 in 1 Std. -
Ortszeit Stärke Spitze Richtung
km/h Bft. km/h Grad Sektor
Mi, 26.06. 8:00 9 2 15 190° S
Mi, 26.06. 2:00 9 2 15 210° SW
Di, 25.06. 20:00 6 1 19 190° S
Di, 25.06. 14:00 11 2 31 170° S
Di, 25.06. 8:00 17 3 35 130° SO
Di, 25.06. 2:00 4 1 25 320° NW
Mo, 24.06. 20:00 15 3 31 90° O
Mo, 24.06. 14:00 13 3 33 100° O
Ortszeit Stärke Spitze Richtung
km/h Bft. km/h Grad Sektor
Mi, 26.06. 11:30 4 1 11 190° S
Mi, 26.06. 11:20 4 1 - 190° S
Mi, 26.06. 11:10 4 1 - 200° S
Mi, 26.06. 11:00 4 1 11 180° S
Mi, 26.06. 10:50 4 1 - 180° S
Mi, 26.06. 10:40 6 1 - 180° S
Mi, 26.06. 10:30 7 2 11 140° SO
Mi, 26.06. 10:00 7 2 14 150° SO
Mi, 26.06. 9:30 9 2 15 180° S
Mi, 26.06. 9:00 11 2 14 180° S
Mi, 26.06. 8:30 9 2 13 190° S
Ortszeit Untergrenze Bedeckung Gattung
total tief tief mittel hoch
Mi, 26.06. 8:00 - 0/8 0/8 - - -
Mi, 26.06. 2:00 10500 m 8/8 0/8 - - -
Di, 25.06. 20:00 - 0/8 0/8 - - -
Di, 25.06. 14:00 9000 m 5/8 0/8 - - -
Di, 25.06. 8:00 10500 m 8/8 0/8 - - -
Di, 25.06. 2:00 12000 m 1/8 0/8 - - -
Mo, 24.06. 20:00 10500 m 7/8 0/8 - - -
Mo, 24.06. 14:00 - 0/8 0/8 - - -
Ortszeit Bedeckungsgrad in Achtel und Wolkenuntergrenze
Mi, 26.06. 11:30 4(9000m)
Mi, 26.06. 11:20 4(9000m)
Mi, 26.06. 11:10 keine Wolken
Mi, 26.06. 11:00 2(9000m)
Mi, 26.06. 10:50 2(9000m)
Mi, 26.06. 10:40 3(9000m)
Mi, 26.06. 10:30 1(9000m)
Mi, 26.06. 10:00 keine Wolken
Mi, 26.06. 9:30 keine Wolken
Mi, 26.06. 9:00 keine Wolken
Mi, 26.06. 8:30 keine Wolken
Ortszeit Luftdruck NN (hPa) Tendenz (hPa in 3 Std.)
Mi, 26.06. 8:00 1022 + 0,5
Mi, 26.06. 2:00 1022 + 0,5
Di, 25.06. 20:00 1019 0,0
Di, 25.06. 14:00 1019 + 0,2
Di, 25.06. 8:00 1019 + 0,2
Di, 25.06. 2:00 1020 - 0,3
Mo, 24.06. 20:00 1019 - 0,2
Mo, 24.06. 14:00 1019 - 0,3
Ortszeit Luftdruck NN (hPa) Tendenz (hPa in 3 Std.)
Mi, 26.06. 11:30 1022 + 0,7
Mi, 26.06. 11:20 1022 keine Meldung
Mi, 26.06. 11:10 1022 keine Meldung
Mi, 26.06. 11:00 1021 + 0,9
Mi, 26.06. 10:50 1021 keine Meldung
Mi, 26.06. 10:40 1022 keine Meldung
Mi, 26.06. 10:30 1022 + 0,9
Mi, 26.06. 10:00 1022 + 0,8
Mi, 26.06. 9:30 1022 + 0,9
Mi, 26.06. 9:00 1022 + 0,7
Mi, 26.06. 8:30 1022 + 0,7
Ortszeit Schneehöhe (cm)
Mi, 26.06. 8:00 -
Mi, 26.06. 2:00 -
Di, 25.06. 20:00 -
Di, 25.06. 14:00 -
Di, 25.06. 8:00 -
Di, 25.06. 2:00 -
Mo, 24.06. 20:00 -
Mo, 24.06. 14:00 -
Ortszeit Schneehöhe (cm)
Mi, 26.06. 11:30 -
Mi, 26.06. 11:20 -
Mi, 26.06. 11:10 -
Mi, 26.06. 11:00 -
Mi, 26.06. 10:50 -
Mi, 26.06. 10:40 -
Mi, 26.06. 10:30 -
Mi, 26.06. 10:00 -
Mi, 26.06. 9:30 -
Mi, 26.06. 9:00 -
Mi, 26.06. 8:30 -
Link zu dieser Seite / Seite empfehlen

Das Wetter in ...